Southern Lily — 9VJK4 — position and weather

sailwx.info

Track history (hours):
 
Tides and Currents Weather Stations Pressure Air Temp Water Temp Dewpoint Dewpoint Depression Visibility Wind Speed Wind Dir Waves Ship Positions

Southern Lily

Last reported at 2016-Sep-17 10:33 UTC. Time now 2016-Sep-27 01:57 UTC.
Position S 36°24' E 174°59'.
Warning: this ship's position is 9 days out of date.

Length 146 m; draft 8.4 m.

Type: Ship. MMSI: 565050000.

Date/timePositionNaut miles runAvg speedWind from/ knotsBaromVisibWave heightAir tempDewpointWater temp
2016-Sep-17 10:33S 36°24' E 174°59'1010.4
2016-Sep-17 09:33S 36°34' E 174°59'1010.1
2016-Sep-17 08:33S 36°43' E 174°52'8 7.9
2016-Sep-17 07:32S 36°50' E 174°48'1 0.6
2016-Sep-17 05:25S 36°51' E 174°47'0 0.0
2016-Sep-17 04:19S 36°51' E 174°47'0 0.0
2016-Sep-17 00:31S 36°51' E 174°47'0 0.0
2016-Sep-16 17:31S 36°51' E 174°47'0 0.0
2016-Sep-16 15:31S 36°51' E 174°47'0 0.0
2016-Sep-16 12:31S 36°51' E 174°47'0 0.0
2016-Sep-16 09:31S 36°51' E 174°47'0 0.0
2016-Sep-16 07:31S 36°51' E 174°47'0 0.0
2016-Sep-16 03:25S 36°51' E 174°47'0 0.0
2016-Sep-16 02:31S 36°51' E 174°47'0 0.0
2016-Sep-16 00:31S 36°51' E 174°47'0 0.0
2016-Sep-15 22:31S 36°51' E 174°47'0 0.0
2016-Sep-15 21:31S 36°51' E 174°47'0 0.0
2016-Sep-15 20:31S 36°51' E 174°47'0 0.0
2016-Sep-15 18:31S 36°51' E 174°47'3 0.1
2016-Sep-14 17:33S 36°50' E 174°50'9 9.4
2016-Sep-14 16:33S 36°41' E 174°55'17 5.8
2016-Sep-14 13:33S 36°24' E 174°60'10 9.7
2016-Sep-14 12:34S 36°14' E 174°58'  
Track history (hours):
 
Tides and Currents Weather Stations Pressure Air Temp Water Temp Dewpoint Dewpoint Depression Visibility Wind Speed Wind Dir Waves Ship Positions

Southern Lily

Last reported at 2016-Sep-17 10:33 UTC. Time now 2016-Sep-27 01:57 UTC.
Position S 36°24' E 174°59'.
Warning: this ship's position is 9 days out of date.

Length 146 m; draft 8.4 m.

Type: Ship. MMSI: 565050000.

Date/timePositionNaut miles runAvg speedWind from/ knotsBaromVisibWave heightAir tempDewpointWater temp
2016-Sep-17 10:33S 36°24' E 174°59'1010.4
2016-Sep-17 09:33S 36°34' E 174°59'1010.1
2016-Sep-17 08:33S 36°43' E 174°52'8 7.9
2016-Sep-17 07:32S 36°50' E 174°48'1 0.6
2016-Sep-17 05:25S 36°51' E 174°47'0 0.0
2016-Sep-17 04:19S 36°51' E 174°47'0 0.0
2016-Sep-17 00:31S 36°51' E 174°47'0 0.0
2016-Sep-16 17:31S 36°51' E 174°47'0 0.0
2016-Sep-16 15:31S 36°51' E 174°47'0 0.0
2016-Sep-16 12:31S 36°51' E 174°47'0 0.0
2016-Sep-16 09:31S 36°51' E 174°47'0 0.0
2016-Sep-16 07:31S 36°51' E 174°47'0 0.0
2016-Sep-16 03:25S 36°51' E 174°47'0 0.0
2016-Sep-16 02:31S 36°51' E 174°47'0 0.0
2016-Sep-16 00:31S 36°51' E 174°47'0 0.0
2016-Sep-15 22:31S 36°51' E 174°47'0 0.0
2016-Sep-15 21:31S 36°51' E 174°47'0 0.0
2016-Sep-15 20:31S 36°51' E 174°47'0 0.0
2016-Sep-15 18:31S 36°51' E 174°47'3 0.1
2016-Sep-14 17:33S 36°50' E 174°50'9 9.4
2016-Sep-14 16:33S 36°41' E 174°55'17 5.8
2016-Sep-14 13:33S 36°24' E 174°60'10 9.7
2016-Sep-14 12:34S 36°14' E 174°58'  

Dump ship's entire track history